sensor_id;sensor_type;location;lat;lon;timestamp;P1;durP1;ratioP1;P2;durP2;ratioP2
22737;SDS011;11536;50.860;4.286;2023-06-01T00:02:19;8.98;;;4.55;;
22737;SDS011;11536;50.860;4.286;2023-06-01T00:04:45;12.18;;;4.80;;
22737;SDS011;11536;50.860;4.286;2023-06-01T00:07:10;11.57;;;4.63;;
22737;SDS011;11536;50.860;4.286;2023-06-01T00:09:36;10.43;;;4.32;;
22737;SDS011;11536;50.860;4.286;2023-06-01T00:12:02;12.52;;;4.57;;
22737;SDS011;11536;50.860;4.286;2023-06-01T00:14:28;12.05;;;4.53;;
22737;SDS011;11536;50.860;4.286;2023-06-01T00:16:54;8.98;;;4.75;;
22737;SDS011;11536;50.860;4.286;2023-06-01T00:19:21;11.60;;;4.90;;
22737;SDS011;11536;50.860;4.286;2023-06-01T00:21:47;10.77;;;4.80;;
22737;SDS011;11536;50.860;4.286;2023-06-01T00:24:13;8.73;;;4.00;;
22737;SDS011;11536;50.860;4.286;2023-06-01T00:26:38;9.85;;;4.97;;
22737;SDS011;11536;50.860;4.286;2023-06-01T00:29:04;13.57;;;5.47;;
22737;SDS011;11536;50.860;4.286;2023-06-01T00:31:30;12.45;;;5.25;;
22737;SDS011;11536;50.860;4.286;2023-06-01T00:33:55;9.85;;;4.90;;
22737;SDS011;11536;50.860;4.286;2023-06-01T00:36:21;8.95;;;4.70;;
22737;SDS011;11536;50.860;4.286;2023-06-01T00:38:47;10.32;;;4.60;;
22737;SDS011;11536;50.860;4.286;2023-06-01T00:41:13;9.73;;;4.43;;
22737;SDS011;11536;50.860;4.286;2023-06-01T00:43:38;10.85;;;4.88;;
22737;SDS011;11536;50.860;4.286;2023-06-01T00:46:04;11.23;;;5.25;;
22737;SDS011;11536;50.860;4.286;2023-06-01T00:48:30;9.20;;;4.25;;
22737;SDS011;11536;50.860;4.286;2023-06-01T00:50:56;10.07;;;4.50;;
22737;SDS011;11536;50.860;4.286;2023-06-01T00:53:24;9.23;;;4.82;;
22737;SDS011;11536;50.860;4.286;2023-06-01T00:55:50;9.00;;;4.57;;
22737;SDS011;11536;50.860;4.286;2023-06-01T00:58:16;12.40;;;4.97;;
22737;SDS011;11536;50.860;4.286;2023-06-01T01:00:42;11.27;;;4.80;;
22737;SDS011;11536;50.860;4.286;2023-06-01T01:03:07;11.63;;;4.50;;
22737;SDS011;11536;50.860;4.286;2023-06-01T01:05:34;13.43;;;4.90;;
22737;SDS011;11536;50.860;4.286;2023-06-01T01:10:55;10.10;;;4.55;;
22737;SDS011;11536;50.860;4.286;2023-06-01T01:13:41;10.77;;;4.57;;
22737;SDS011;11536;50.860;4.286;2023-06-01T01:18:50;11.27;;;4.75;;
22737;SDS011;11536;50.860;4.286;2023-06-01T01:21:19;11.35;;;4.78;;
22737;SDS011;11536;50.860;4.286;2023-06-01T01:29:10;10.77;;;4.50;;
22737;SDS011;11536;50.860;4.286;2023-06-01T01:31:39;13.00;;;5.38;;
22737;SDS011;11536;50.860;4.286;2023-06-01T01:34:06;12.63;;;5.65;;
22737;SDS011;11536;50.860;4.286;2023-06-01T01:36:34;12.80;;;4.60;;
22737;SDS011;11536;50.860;4.286;2023-06-01T01:39:01;12.38;;;4.85;;
22737;SDS011;11536;50.860;4.286;2023-06-01T01:41:27;12.05;;;5.30;;
22737;SDS011;11536;50.860;4.286;2023-06-01T01:43:53;12.38;;;5.03;;
22737;SDS011;11536;50.860;4.286;2023-06-01T01:46:22;13.07;;;5.38;;
22737;SDS011;11536;50.860;4.286;2023-06-01T01:48:59;10.07;;;4.93;;
22737;SDS011;11536;50.860;4.286;2023-06-01T01:54:24;10.02;;;4.63;;
22737;SDS011;11536;50.860;4.286;2023-06-01T01:56:51;12.57;;;4.90;;
22737;SDS011;11536;50.860;4.286;2023-06-01T01:59:22;13.90;;;5.55;;
22737;SDS011;11536;50.860;4.286;2023-06-01T02:01:49;11.82;;;5.45;;
22737;SDS011;11536;50.860;4.286;2023-06-01T02:04:15;11.77;;;5.05;;
22737;SDS011;11536;50.860;4.286;2023-06-01T02:06:41;14.80;;;6.00;;
22737;SDS011;11536;50.860;4.286;2023-06-01T02:09:06;13.80;;;5.40;;
22737;SDS011;11536;50.860;4.286;2023-06-01T02:11:35;10.40;;;5.18;;
22737;SDS011;11536;50.860;4.286;2023-06-01T02:14:01;14.55;;;5.72;;
22737;SDS011;11536;50.860;4.286;2023-06-01T02:16:27;11.50;;;5.20;;
22737;SDS011;11536;50.860;4.286;2023-06-01T02:18:53;12.50;;;5.13;;
22737;SDS011;11536;50.860;4.286;2023-06-01T02:21:18;13.00;;;5.40;;
22737;SDS011;11536;50.860;4.286;2023-06-01T02:23:44;12.15;;;5.47;;
22737;SDS011;11536;50.860;4.286;2023-06-01T02:26:10;14.13;;;5.40;;
22737;SDS011;11536;50.860;4.286;2023-06-01T02:28:36;14.43;;;6.05;;
22737;SDS011;11536;50.860;4.286;2023-06-01T02:31:03;13.30;;;5.50;;
22737;SDS011;11536;50.860;4.286;2023-06-01T02:33:30;16.92;;;5.93;;
22737;SDS011;11536;50.860;4.286;2023-06-01T02:35:56;12.55;;;5.65;;
22737;SDS011;11536;50.860;4.286;2023-06-01T02:38:22;15.27;;;6.07;;
22737;SDS011;11536;50.860;4.286;2023-06-01T02:40:47;13.82;;;5.60;;
22737;SDS011;11536;50.860;4.286;2023-06-01T02:43:13;14.35;;;5.88;;
22737;SDS011;11536;50.860;4.286;2023-06-01T02:45:39;16.05;;;6.15;;
22737;SDS011;11536;50.860;4.286;2023-06-01T02:48:04;12.80;;;5.90;;
22737;SDS011;11536;50.860;4.286;2023-06-01T02:50:30;13.40;;;5.53;;
22737;SDS011;11536;50.860;4.286;2023-06-01T02:52:56;12.43;;;5.97;;
22737;SDS011;11536;50.860;4.286;2023-06-01T02:55:21;12.07;;;5.60;;
22737;SDS011;11536;50.860;4.286;2023-06-01T02:57:47;15.65;;;6.20;;
22737;SDS011;11536;50.860;4.286;2023-06-01T03:00:13;14.82;;;6.43;;
22737;SDS011;11536;50.860;4.286;2023-06-01T03:02:42;13.50;;;5.53;;
22737;SDS011;11536;50.860;4.286;2023-06-01T03:05:08;15.55;;;5.88;;
22737;SDS011;11536;50.860;4.286;2023-06-01T03:07:34;17.83;;;6.00;;
22737;SDS011;11536;50.860;4.286;2023-06-01T03:10:02;12.90;;;5.70;;
22737;SDS011;11536;50.860;4.286;2023-06-01T03:12:28;15.82;;;6.45;;
22737;SDS011;11536;50.860;4.286;2023-06-01T03:14:54;15.27;;;6.30;;
22737;SDS011;11536;50.860;4.286;2023-06-01T03:17:19;15.05;;;6.28;;
22737;SDS011;11536;50.860;4.286;2023-06-01T03:19:45;14.93;;;6.10;;
22737;SDS011;11536;50.860;4.286;2023-06-01T03:22:11;15.18;;;6.25;;
22737;SDS011;11536;50.860;4.286;2023-06-01T03:24:36;14.63;;;6.45;;
22737;SDS011;11536;50.860;4.286;2023-06-01T03:27:06;16.58;;;6.60;;
22737;SDS011;11536;50.860;4.286;2023-06-01T03:29:32;15.45;;;6.43;;
22737;SDS011;11536;50.860;4.286;2023-06-01T03:31:58;13.52;;;6.07;;
22737;SDS011;11536;50.860;4.286;2023-06-01T03:34:24;13.73;;;6.38;;
22737;SDS011;11536;50.860;4.286;2023-06-01T03:36:52;19.13;;;6.68;;
22737;SDS011;11536;50.860;4.286;2023-06-01T03:39:18;15.45;;;7.10;;
22737;SDS011;11536;50.860;4.286;2023-06-01T03:41:43;13.77;;;6.03;;
22737;SDS011;11536;50.860;4.286;2023-06-01T03:44:10;15.80;;;6.43;;
22737;SDS011;11536;50.860;4.286;2023-06-01T03:46:36;19.55;;;6.75;;
22737;SDS011;11536;50.860;4.286;2023-06-01T03:49:02;15.18;;;6.72;;
22737;SDS011;11536;50.860;4.286;2023-06-01T03:51:29;17.55;;;7.30;;
22737;SDS011;11536;50.860;4.286;2023-06-01T03:53:55;15.63;;;6.75;;
22737;SDS011;11536;50.860;4.286;2023-06-01T03:56:20;15.00;;;6.25;;
22737;SDS011;11536;50.860;4.286;2023-06-01T03:58:47;16.05;;;6.82;;
22737;SDS011;11536;50.860;4.286;2023-06-01T04:01:13;18.52;;;6.32;;
22737;SDS011;11536;50.860;4.286;2023-06-01T04:03:44;16.33;;;7.05;;
22737;SDS011;11536;50.860;4.286;2023-06-01T04:06:11;20.00;;;7.63;;
22737;SDS011;11536;50.860;4.286;2023-06-01T04:08:42;16.38;;;6.70;;
22737;SDS011;11536;50.860;4.286;2023-06-01T04:11:13;16.98;;;7.22;;
22737;SDS011;11536;50.860;4.286;2023-06-01T04:13:40;13.90;;;6.45;;
22737;SDS011;11536;50.860;4.286;2023-06-01T04:16:06;18.02;;;6.88;;
22737;SDS011;11536;50.860;4.286;2023-06-01T04:18:31;21.05;;;6.70;;
22737;SDS011;11536;50.860;4.286;2023-06-01T04:20:57;16.80;;;6.80;;
22737;SDS011;11536;50.860;4.286;2023-06-01T04:23:22;20.08;;;7.63;;
22737;SDS011;11536;50.860;4.286;2023-06-01T04:25:48;14.48;;;6.80;;
22737;SDS011;11536;50.860;4.286;2023-06-01T04:28:17;15.07;;;6.68;;
22737;SDS011;11536;50.860;4.286;2023-06-01T04:30:43;16.08;;;6.75;;
22737;SDS011;11536;50.860;4.286;2023-06-01T04:33:09;18.73;;;7.55;;
22737;SDS011;11536;50.860;4.286;2023-06-01T04:35:35;17.33;;;7.40;;
22737;SDS011;11536;50.860;4.286;2023-06-01T04:38:04;15.13;;;6.80;;
22737;SDS011;11536;50.860;4.286;2023-06-01T04:40:29;15.93;;;7.28;;
22737;SDS011;11536;50.860;4.286;2023-06-01T04:42:55;18.17;;;7.35;;
22737;SDS011;11536;50.860;4.286;2023-06-01T04:45:22;15.93;;;7.57;;
22737;SDS011;11536;50.860;4.286;2023-06-01T04:47:50;17.63;;;7.38;;
22737;SDS011;11536;50.860;4.286;2023-06-01T04:50:16;18.55;;;8.32;;
22737;SDS011;11536;50.860;4.286;2023-06-01T04:52:42;18.90;;;7.78;;
22737;SDS011;11536;50.860;4.286;2023-06-01T04:55:09;18.35;;;7.88;;
22737;SDS011;11536;50.860;4.286;2023-06-01T04:57:38;16.48;;;7.72;;
22737;SDS011;11536;50.860;4.286;2023-06-01T05:00:04;14.73;;;7.00;;
22737;SDS011;11536;50.860;4.286;2023-06-01T05:02:36;22.08;;;8.57;;
22737;SDS011;11536;50.860;4.286;2023-06-01T05:05:02;18.48;;;7.65;;
22737;SDS011;11536;50.860;4.286;2023-06-01T05:07:29;16.05;;;7.72;;
22737;SDS011;11536;50.860;4.286;2023-06-01T05:09:55;18.30;;;8.00;;
22737;SDS011;11536;50.860;4.286;2023-06-01T05:12:20;19.98;;;8.52;;
22737;SDS011;11536;50.860;4.286;2023-06-01T05:14:46;22.35;;;8.52;;
22737;SDS011;11536;50.860;4.286;2023-06-01T05:17:12;20.15;;;8.48;;
22737;SDS011;11536;50.860;4.286;2023-06-01T05:19:37;19.83;;;8.00;;
22737;SDS011;11536;50.860;4.286;2023-06-01T05:22:03;23.17;;;8.40;;
22737;SDS011;11536;50.860;4.286;2023-06-01T05:24:28;20.70;;;8.88;;
22737;SDS011;11536;50.860;4.286;2023-06-01T05:26:54;19.60;;;9.27;;
22737;SDS011;11536;50.860;4.286;2023-06-01T05:29:20;23.02;;;9.40;;
22737;SDS011;11536;50.860;4.286;2023-06-01T05:31:46;20.58;;;9.48;;
22737;SDS011;11536;50.860;4.286;2023-06-01T05:34:12;17.08;;;8.55;;
22737;SDS011;11536;50.860;4.286;2023-06-01T05:36:38;20.63;;;8.98;;
22737;SDS011;11536;50.860;4.286;2023-06-01T05:39:04;19.40;;;8.18;;
22737;SDS011;11536;50.860;4.286;2023-06-01T05:41:29;17.20;;;8.15;;
22737;SDS011;11536;50.860;4.286;2023-06-01T05:43:55;19.00;;;8.65;;
22737;SDS011;11536;50.860;4.286;2023-06-01T05:46:20;20.75;;;8.82;;
22737;SDS011;11536;50.860;4.286;2023-06-01T05:48:46;22.55;;;8.57;;
22737;SDS011;11536;50.860;4.286;2023-06-01T05:51:11;19.25;;;8.20;;
22737;SDS011;11536;50.860;4.286;2023-06-01T05:53:37;19.90;;;8.80;;
22737;SDS011;11536;50.860;4.286;2023-06-01T05:56:02;22.55;;;9.05;;
22737;SDS011;11536;50.860;4.286;2023-06-01T05:58:28;21.70;;;9.05;;
22737;SDS011;11536;50.860;4.286;2023-06-01T06:00:54;20.83;;;9.32;;
22737;SDS011;11536;50.860;4.286;2023-06-01T06:03:21;21.45;;;9.02;;
22737;SDS011;11536;50.860;4.286;2023-06-01T06:05:47;19.48;;;8.55;;
22737;SDS011;11536;50.860;4.286;2023-06-01T06:08:13;22.42;;;8.82;;
22737;SDS011;11536;50.860;4.286;2023-06-01T06:10:39;19.70;;;9.32;;
22737;SDS011;11536;50.860;4.286;2023-06-01T06:13:05;22.00;;;9.02;;
22737;SDS011;11536;50.860;4.286;2023-06-01T06:15:30;22.40;;;8.70;;
22737;SDS011;11536;50.860;4.286;2023-06-01T06:17:56;22.85;;;8.70;;
22737;SDS011;11536;50.860;4.286;2023-06-01T06:20:21;20.65;;;8.85;;
22737;SDS011;11536;50.860;4.286;2023-06-01T06:22:51;20.85;;;9.30;;
22737;SDS011;11536;50.860;4.286;2023-06-01T06:25:17;21.65;;;9.35;;
22737;SDS011;11536;50.860;4.286;2023-06-01T06:27:43;19.83;;;8.48;;
22737;SDS011;11536;50.860;4.286;2023-06-01T06:30:08;21.83;;;9.30;;
22737;SDS011;11536;50.860;4.286;2023-06-01T06:32:34;18.15;;;8.32;;
22737;SDS011;11536;50.860;4.286;2023-06-01T06:35:00;19.20;;;8.02;;
22737;SDS011;11536;50.860;4.286;2023-06-01T06:37:26;17.60;;;7.78;;
22737;SDS011;11536;50.860;4.286;2023-06-01T06:39:52;19.30;;;8.30;;
22737;SDS011;11536;50.860;4.286;2023-06-01T06:42:18;19.48;;;8.57;;
22737;SDS011;11536;50.860;4.286;2023-06-01T06:44:44;18.05;;;7.90;;
22737;SDS011;11536;50.860;4.286;2023-06-01T06:47:09;17.83;;;7.88;;
22737;SDS011;11536;50.860;4.286;2023-06-01T06:49:39;17.13;;;8.38;;
22737;SDS011;11536;50.860;4.286;2023-06-01T06:52:05;17.98;;;7.88;;
22737;SDS011;11536;50.860;4.286;2023-06-01T06:54:31;17.95;;;8.73;;
22737;SDS011;11536;50.860;4.286;2023-06-01T06:56:56;18.02;;;8.18;;
22737;SDS011;11536;50.860;4.286;2023-06-01T06:59:22;16.60;;;7.70;;
22737;SDS011;11536;50.860;4.286;2023-06-01T07:01:47;20.33;;;8.38;;
22737;SDS011;11536;50.860;4.286;2023-06-01T07:04:13;17.67;;;8.20;;
22737;SDS011;11536;50.860;4.286;2023-06-01T07:06:38;19.88;;;8.15;;
22737;SDS011;11536;50.860;4.286;2023-06-01T07:09:04;19.13;;;8.63;;
22737;SDS011;11536;50.860;4.286;2023-06-01T07:11:34;18.13;;;8.80;;
22737;SDS011;11536;50.860;4.286;2023-06-01T07:14:00;17.80;;;8.65;;
22737;SDS011;11536;50.860;4.286;2023-06-01T07:16:26;18.25;;;8.82;;
22737;SDS011;11536;50.860;4.286;2023-06-01T07:18:53;18.25;;;8.18;;
22737;SDS011;11536;50.860;4.286;2023-06-01T07:21:18;18.85;;;9.27;;
22737;SDS011;11536;50.860;4.286;2023-06-01T07:23:45;17.33;;;8.18;;
22737;SDS011;11536;50.860;4.286;2023-06-01T07:26:11;20.23;;;9.23;;
22737;SDS011;11536;50.860;4.286;2023-06-01T07:28:37;18.08;;;8.35;;
22737;SDS011;11536;50.860;4.286;2023-06-01T07:31:03;21.02;;;8.80;;
22737;SDS011;11536;50.860;4.286;2023-06-01T07:33:29;16.58;;;8.30;;
22737;SDS011;11536;50.860;4.286;2023-06-01T07:35:55;15.85;;;8.40;;
22737;SDS011;11536;50.860;4.286;2023-06-01T07:38:23;20.63;;;8.48;;
22737;SDS011;11536;50.860;4.286;2023-06-01T07:40:50;20.60;;;8.68;;
22737;SDS011;11536;50.860;4.286;2023-06-01T07:43:16;16.73;;;7.60;;
22737;SDS011;11536;50.860;4.286;2023-06-01T07:45:42;17.38;;;8.20;;
22737;SDS011;11536;50.860;4.286;2023-06-01T07:48:07;19.27;;;8.40;;
22737;SDS011;11536;50.860;4.286;2023-06-01T07:50:33;20.13;;;8.57;;
22737;SDS011;11536;50.860;4.286;2023-06-01T07:52:59;15.80;;;7.93;;
22737;SDS011;11536;50.860;4.286;2023-06-01T07:55:24;18.50;;;8.02;;
22737;SDS011;11536;50.860;4.286;2023-06-01T07:57:51;16.98;;;7.30;;
22737;SDS011;11536;50.860;4.286;2023-06-01T08:00:17;15.85;;;7.35;;
22737;SDS011;11536;50.860;4.286;2023-06-01T08:02:43;17.02;;;8.30;;
22737;SDS011;11536;50.860;4.286;2023-06-01T08:05:09;17.10;;;7.07;;
22737;SDS011;11536;50.860;4.286;2023-06-01T08:07:36;17.20;;;8.07;;
22737;SDS011;11536;50.860;4.286;2023-06-01T08:10:03;16.25;;;7.47;;
22737;SDS011;11536;50.860;4.286;2023-06-01T08:12:30;17.27;;;8.02;;
22737;SDS011;11536;50.860;4.286;2023-06-01T08:14:57;19.63;;;8.35;;
22737;SDS011;11536;50.860;4.286;2023-06-01T08:17:23;19.85;;;9.07;;
22737;SDS011;11536;50.860;4.286;2023-06-01T08:19:49;17.60;;;8.35;;
22737;SDS011;11536;50.860;4.286;2023-06-01T08:22:16;19.63;;;8.43;;
22737;SDS011;11536;50.860;4.286;2023-06-01T08:24:42;18.08;;;8.13;;
22737;SDS011;11536;50.860;4.286;2023-06-01T08:27:41;18.30;;;8.40;;
22737;SDS011;11536;50.860;4.286;2023-06-01T08:30:00;16.95;;;7.90;;
22737;SDS011;11536;50.860;4.286;2023-06-01T08:32:25;17.00;;;7.75;;
22737;SDS011;11536;50.860;4.286;2023-06-01T08:34:51;16.27;;;7.65;;
22737;SDS011;11536;50.860;4.286;2023-06-01T08:37:17;16.63;;;7.95;;
22737;SDS011;11536;50.860;4.286;2023-06-01T08:39:42;26.55;;;8.48;;
22737;SDS011;11536;50.860;4.286;2023-06-01T08:42:30;16.58;;;7.13;;
22737;SDS011;11536;50.860;4.286;2023-06-01T08:45:03;15.23;;;7.55;;
22737;SDS011;11536;50.860;4.286;2023-06-01T08:47:30;12.30;;;6.53;;
22737;SDS011;11536;50.860;4.286;2023-06-01T08:50:00;16.10;;;7.13;;
22737;SDS011;11536;50.860;4.286;2023-06-01T08:52:27;16.65;;;7.72;;
22737;SDS011;11536;50.860;4.286;2023-06-01T08:54:54;18.00;;;7.93;;
22737;SDS011;11536;50.860;4.286;2023-06-01T08:57:20;18.05;;;8.18;;
22737;SDS011;11536;50.860;4.286;2023-06-01T08:59:46;16.35;;;7.50;;
22737;SDS011;11536;50.860;4.286;2023-06-01T09:02:12;15.13;;;8.00;;
22737;SDS011;11536;50.860;4.286;2023-06-01T09:04:39;14.75;;;7.97;;
22737;SDS011;11536;50.860;4.286;2023-06-01T09:07:07;18.02;;;7.47;;
22737;SDS011;11536;50.860;4.286;2023-06-01T09:09:33;18.27;;;8.73;;
22737;SDS011;11536;50.860;4.286;2023-06-01T09:14:43;16.73;;;7.30;;
22737;SDS011;11536;50.860;4.286;2023-06-01T09:17:12;16.17;;;7.63;;
22737;SDS011;11536;50.860;4.286;2023-06-01T09:19:43;20.17;;;8.02;;
22737;SDS011;11536;50.860;4.286;2023-06-01T09:22:10;17.05;;;8.30;;
22737;SDS011;11536;50.860;4.286;2023-06-01T09:24:37;14.57;;;7.53;;
22737;SDS011;11536;50.860;4.286;2023-06-01T09:27:03;17.02;;;7.35;;
22737;SDS011;11536;50.860;4.286;2023-06-01T09:29:29;15.13;;;8.30;;
22737;SDS011;11536;50.860;4.286;2023-06-01T09:31:55;18.73;;;6.95;;
22737;SDS011;11536;50.860;4.286;2023-06-01T09:34:21;15.52;;;6.72;;
22737;SDS011;11536;50.860;4.286;2023-06-01T09:36:47;13.10;;;7.40;;
22737;SDS011;11536;50.860;4.286;2023-06-01T09:39:22;15.87;;;7.63;;
22737;SDS011;11536;50.860;4.286;2023-06-01T09:44:24;14.43;;;6.88;;
22737;SDS011;11536;50.860;4.286;2023-06-01T09:46:58;15.93;;;7.25;;
22737;SDS011;11536;50.860;4.286;2023-06-01T09:49:29;16.92;;;7.30;;
22737;SDS011;11536;50.860;4.286;2023-06-01T09:54:28;14.35;;;6.88;;
22737;SDS011;11536;50.860;4.286;2023-06-01T09:56:56;17.70;;;6.20;;
22737;SDS011;11536;50.860;4.286;2023-06-01T09:59:22;11.90;;;5.28;;
22737;SDS011;11536;50.860;4.286;2023-06-01T10:01:50;16.17;;;5.57;;
22737;SDS011;11536;50.860;4.286;2023-06-01T10:04:22;12.70;;;6.03;;
22737;SDS011;11536;50.860;4.286;2023-06-01T10:06:49;14.85;;;6.18;;
22737;SDS011;11536;50.860;4.286;2023-06-01T10:09:16;13.43;;;6.40;;
22737;SDS011;11536;50.860;4.286;2023-06-01T10:11:45;12.32;;;5.68;;
22737;SDS011;11536;50.860;4.286;2023-06-01T10:14:18;16.30;;;6.63;;
22737;SDS011;11536;50.860;4.286;2023-06-01T10:16:45;15.05;;;6.38;;
22737;SDS011;11536;50.860;4.286;2023-06-01T10:19:13;18.15;;;6.53;;
22737;SDS011;11536;50.860;4.286;2023-06-01T10:21:39;15.63;;;6.80;;
22737;SDS011;11536;50.860;4.286;2023-06-01T10:24:05;15.80;;;6.40;;
22737;SDS011;11536;50.860;4.286;2023-06-01T10:26:45;13.77;;;6.20;;
22737;SDS011;11536;50.860;4.286;2023-06-01T10:29:21;15.07;;;7.32;;
22737;SDS011;11536;50.860;4.286;2023-06-01T10:31:49;15.85;;;7.28;;
22737;SDS011;11536;50.860;4.286;2023-06-01T10:34:17;15.43;;;7.18;;
22737;SDS011;11536;50.860;4.286;2023-06-01T10:37:13;14.90;;;6.53;;
22737;SDS011;11536;50.860;4.286;2023-06-01T10:39:40;16.52;;;6.68;;
22737;SDS011;11536;50.860;4.286;2023-06-01T10:52:26;16.65;;;6.32;;
22737;SDS011;11536;50.860;4.286;2023-06-01T10:54:54;18.45;;;6.43;;
22737;SDS011;11536;50.860;4.286;2023-06-01T10:57:22;13.60;;;5.65;;
22737;SDS011;11536;50.860;4.286;2023-06-01T11:03:01;16.73;;;6.45;;
22737;SDS011;11536;50.860;4.286;2023-06-01T11:05:35;13.20;;;6.25;;
22737;SDS011;11536;50.860;4.286;2023-06-01T11:08:04;14.27;;;6.80;;
22737;SDS011;11536;50.860;4.286;2023-06-01T11:13:16;13.63;;;6.50;;
22737;SDS011;11536;50.860;4.286;2023-06-01T11:21:10;15.98;;;7.43;;
22737;SDS011;11536;50.860;4.286;2023-06-01T11:23:43;17.95;;;8.07;;
22737;SDS011;11536;50.860;4.286;2023-06-01T11:26:16;15.38;;;7.10;;
22737;SDS011;11536;50.860;4.286;2023-06-01T11:28:43;16.33;;;7.57;;
22737;SDS011;11536;50.860;4.286;2023-06-01T11:31:14;15.20;;;6.88;;
22737;SDS011;11536;50.860;4.286;2023-06-01T11:33:48;16.08;;;7.30;;
22737;SDS011;11536;50.860;4.286;2023-06-01T11:36:22;15.98;;;7.18;;
22737;SDS011;11536;50.860;4.286;2023-06-01T11:38:50;15.65;;;7.07;;
22737;SDS011;11536;50.860;4.286;2023-06-01T11:41:16;14.60;;;7.05;;
22737;SDS011;11536;50.860;4.286;2023-06-01T11:43:44;15.57;;;7.35;;
22737;SDS011;11536;50.860;4.286;2023-06-01T11:46:09;18.30;;;7.40;;
22737;SDS011;11536;50.860;4.286;2023-06-01T11:48:35;16.35;;;7.28;;
22737;SDS011;11536;50.860;4.286;2023-06-01T11:51:01;16.67;;;7.10;;
22737;SDS011;11536;50.860;4.286;2023-06-01T11:53:30;16.23;;;6.85;;
22737;SDS011;11536;50.860;4.286;2023-06-01T11:55:59;16.17;;;6.88;;
22737;SDS011;11536;50.860;4.286;2023-06-01T11:58:28;16.38;;;6.82;;
22737;SDS011;11536;50.860;4.286;2023-06-01T12:00:55;17.33;;;7.38;;
22737;SDS011;11536;50.860;4.286;2023-06-01T12:03:22;15.43;;;6.93;;
22737;SDS011;11536;50.860;4.286;2023-06-01T12:05:51;17.60;;;7.90;;
22737;SDS011;11536;50.860;4.286;2023-06-01T12:10:49;14.95;;;6.32;;
22737;SDS011;11536;50.860;4.286;2023-06-01T12:13:16;16.92;;;8.07;;
22737;SDS011;11536;50.860;4.286;2023-06-01T12:15:42;18.38;;;8.00;;
22737;SDS011;11536;50.860;4.286;2023-06-01T12:18:08;16.67;;;8.10;;
22737;SDS011;11536;50.860;4.286;2023-06-01T12:20:43;15.25;;;7.03;;
22737;SDS011;11536;50.860;4.286;2023-06-01T12:25:37;13.43;;;6.65;;
22737;SDS011;11536;50.860;4.286;2023-06-01T12:28:13;15.95;;;7.53;;
22737;SDS011;11536;50.860;4.286;2023-06-01T12:30:38;14.68;;;6.75;;
22737;SDS011;11536;50.860;4.286;2023-06-01T12:33:04;15.70;;;6.90;;
22737;SDS011;11536;50.860;4.286;2023-06-01T12:35:30;13.98;;;6.13;;
22737;SDS011;11536;50.860;4.286;2023-06-01T12:38:03;16.83;;;7.30;;
22737;SDS011;11536;50.860;4.286;2023-06-01T12:40:29;13.45;;;6.60;;
22737;SDS011;11536;50.860;4.286;2023-06-01T12:42:55;13.10;;;6.75;;
22737;SDS011;11536;50.860;4.286;2023-06-01T12:45:21;15.75;;;7.13;;
22737;SDS011;11536;50.860;4.286;2023-06-01T12:47:46;16.65;;;7.22;;
22737;SDS011;11536;50.860;4.286;2023-06-01T12:50:12;14.98;;;6.60;;
22737;SDS011;11536;50.860;4.286;2023-06-01T12:52:39;15.93;;;6.68;;
22737;SDS011;11536;50.860;4.286;2023-06-01T12:55:06;14.25;;;6.65;;
22737;SDS011;11536;50.860;4.286;2023-06-01T12:57:33;13.75;;;6.35;;
22737;SDS011;11536;50.860;4.286;2023-06-01T13:00:00;15.27;;;6.25;;
22737;SDS011;11536;50.860;4.286;2023-06-01T13:02:27;12.00;;;5.60;;
22737;SDS011;11536;50.860;4.286;2023-06-01T13:04:53;13.80;;;6.13;;
22737;SDS011;11536;50.860;4.286;2023-06-01T13:07:19;13.40;;;6.05;;
22737;SDS011;11536;50.860;4.286;2023-06-01T13:09:48;13.98;;;5.57;;
22737;SDS011;11536;50.860;4.286;2023-06-01T13:12:15;20.33;;;7.15;;
22737;SDS011;11536;50.860;4.286;2023-06-01T13:14:42;17.60;;;6.68;;
22737;SDS011;11536;50.860;4.286;2023-06-01T13:17:07;12.73;;;6.57;;
22737;SDS011;11536;50.860;4.286;2023-06-01T13:19:33;17.27;;;6.53;;
22737;SDS011;11536;50.860;4.286;2023-06-01T13:21:59;14.57;;;6.13;;
22737;SDS011;11536;50.860;4.286;2023-06-01T13:24:24;13.48;;;5.80;;
22737;SDS011;11536;50.860;4.286;2023-06-01T13:26:50;12.32;;;5.85;;
22737;SDS011;11536;50.860;4.286;2023-06-01T13:29:16;14.48;;;6.45;;
22737;SDS011;11536;50.860;4.286;2023-06-01T13:31:43;14.07;;;6.20;;
22737;SDS011;11536;50.860;4.286;2023-06-01T13:34:08;15.63;;;6.68;;
22737;SDS011;11536;50.860;4.286;2023-06-01T13:36:34;13.63;;;6.38;;
22737;SDS011;11536;50.860;4.286;2023-06-01T13:39:00;13.57;;;5.25;;
22737;SDS011;11536;50.860;4.286;2023-06-01T13:41:26;14.63;;;6.20;;
22737;SDS011;11536;50.860;4.286;2023-06-01T13:43:51;9.85;;;4.78;;
22737;SDS011;11536;50.860;4.286;2023-06-01T13:46:17;15.88;;;5.82;;
22737;SDS011;11536;50.860;4.286;2023-06-01T13:48:43;15.02;;;5.25;;
22737;SDS011;11536;50.860;4.286;2023-06-01T13:51:09;13.02;;;5.18;;
22737;SDS011;11536;50.860;4.286;2023-06-01T13:53:36;11.68;;;4.78;;
22737;SDS011;11536;50.860;4.286;2023-06-01T13:56:03;10.73;;;4.68;;
22737;SDS011;11536;50.860;4.286;2023-06-01T13:58:29;10.98;;;4.70;;
22737;SDS011;11536;50.860;4.286;2023-06-01T14:00:56;10.27;;;4.60;;
22737;SDS011;11536;50.860;4.286;2023-06-01T14:03:25;10.10;;;4.50;;
22737;SDS011;11536;50.860;4.286;2023-06-01T14:05:50;9.10;;;4.38;;
22737;SDS011;11536;50.860;4.286;2023-06-01T14:08:16;14.45;;;4.90;;
22737;SDS011;11536;50.860;4.286;2023-06-01T14:10:41;8.95;;;4.03;;
22737;SDS011;11536;50.860;4.286;2023-06-01T14:13:07;8.98;;;4.22;;
22737;SDS011;11536;50.860;4.286;2023-06-01T14:15:33;9.32;;;4.13;;
22737;SDS011;11536;50.860;4.286;2023-06-01T14:17:58;10.65;;;4.50;;
22737;SDS011;11536;50.860;4.286;2023-06-01T14:20:29;10.38;;;4.20;;
22737;SDS011;11536;50.860;4.286;2023-06-01T14:22:55;10.82;;;3.92;;
22737;SDS011;11536;50.860;4.286;2023-06-01T14:25:21;12.30;;;4.55;;
22737;SDS011;11536;50.860;4.286;2023-06-01T14:27:53;9.60;;;3.85;;
22737;SDS011;11536;50.860;4.286;2023-06-01T14:30:19;12.63;;;4.63;;
22737;SDS011;11536;50.860;4.286;2023-06-01T14:32:44;14.63;;;5.10;;
22737;SDS011;11536;50.860;4.286;2023-06-01T14:35:10;10.80;;;5.45;;
22737;SDS011;11536;50.860;4.286;2023-06-01T14:37:40;10.73;;;4.65;;
22737;SDS011;11536;50.860;4.286;2023-06-01T14:40:07;14.50;;;4.68;;
22737;SDS011;11536;50.860;4.286;2023-06-01T14:42:39;11.38;;;4.30;;
22737;SDS011;11536;50.860;4.286;2023-06-01T14:45:11;12.70;;;5.03;;
22737;SDS011;11536;50.860;4.286;2023-06-01T14:47:36;11.52;;;5.00;;
22737;SDS011;11536;50.860;4.286;2023-06-01T14:50:02;13.43;;;4.63;;
22737;SDS011;11536;50.860;4.286;2023-06-01T14:52:28;16.70;;;5.03;;
22737;SDS011;11536;50.860;4.286;2023-06-01T14:54:55;12.60;;;5.18;;
22737;SDS011;11536;50.860;4.286;2023-06-01T14:57:20;10.40;;;4.60;;
22737;SDS011;11536;50.860;4.286;2023-06-01T14:59:46;11.55;;;4.80;;
22737;SDS011;11536;50.860;4.286;2023-06-01T15:02:11;11.30;;;5.00;;
22737;SDS011;11536;50.860;4.286;2023-06-01T15:04:43;10.50;;;5.05;;
22737;SDS011;11536;50.860;4.286;2023-06-01T15:07:18;12.82;;;4.75;;
22737;SDS011;11536;50.860;4.286;2023-06-01T15:09:43;11.27;;;4.47;;
22737;SDS011;11536;50.860;4.286;2023-06-01T15:12:09;14.52;;;5.07;;
22737;SDS011;11536;50.860;4.286;2023-06-01T15:14:34;11.00;;;4.78;;
22737;SDS011;11536;50.860;4.286;2023-06-01T15:17:00;11.80;;;5.43;;
22737;SDS011;11536;50.860;4.286;2023-06-01T15:19:25;13.60;;;5.45;;
22737;SDS011;11536;50.860;4.286;2023-06-01T15:21:51;10.38;;;4.90;;
22737;SDS011;11536;50.860;4.286;2023-06-01T15:24:17;10.38;;;5.07;;